sensor_id;sensor_type;location;lat;lon;timestamp;P1;durP1;ratioP1;P2;durP2;ratioP2
9392;SDS011;4736;52.508;13.422;2023-04-08T00:03:03;15.93;;;14.43;;
9392;SDS011;4736;52.508;13.422;2023-04-08T00:06:06;15.47;;;13.87;;
9392;SDS011;4736;52.508;13.422;2023-04-08T00:09:09;15.80;;;14.23;;
9392;SDS011;4736;52.508;13.422;2023-04-08T00:12:13;17.27;;;15.30;;
9392;SDS011;4736;52.508;13.422;2023-04-08T00:15:16;15.93;;;14.23;;
9392;SDS011;4736;52.508;13.422;2023-04-08T00:18:20;17.90;;;14.37;;
9392;SDS011;4736;52.508;13.422;2023-04-08T00:21:23;17.00;;;15.17;;
9392;SDS011;4736;52.508;13.422;2023-04-08T00:24:27;18.60;;;16.33;;
9392;SDS011;4736;52.508;13.422;2023-04-08T00:27:30;18.33;;;15.27;;
9392;SDS011;4736;52.508;13.422;2023-04-08T00:30:34;18.07;;;15.87;;
9392;SDS011;4736;52.508;13.422;2023-04-08T00:33:39;25.87;;;17.70;;
9392;SDS011;4736;52.508;13.422;2023-04-08T00:36:42;19.53;;;17.43;;
9392;SDS011;4736;52.508;13.422;2023-04-08T00:39:45;25.10;;;18.57;;
9392;SDS011;4736;52.508;13.422;2023-04-08T00:42:48;23.20;;;18.07;;
9392;SDS011;4736;52.508;13.422;2023-04-08T00:45:51;23.37;;;19.53;;
9392;SDS011;4736;52.508;13.422;2023-04-08T00:48:56;25.77;;;19.23;;
9392;SDS011;4736;52.508;13.422;2023-04-08T00:51:59;26.43;;;19.87;;
9392;SDS011;4736;52.508;13.422;2023-04-08T00:55:03;23.80;;;18.83;;
9392;SDS011;4736;52.508;13.422;2023-04-08T00:58:06;28.27;;;20.57;;
9392;SDS011;4736;52.508;13.422;2023-04-08T01:01:11;29.50;;;20.73;;
9392;SDS011;4736;52.508;13.422;2023-04-08T01:04:25;25.50;;;20.30;;
9392;SDS011;4736;52.508;13.422;2023-04-08T01:07:31;31.27;;;20.93;;
9392;SDS011;4736;52.508;13.422;2023-04-08T01:10:36;30.43;;;20.53;;
9392;SDS011;4736;52.508;13.422;2023-04-08T01:13:43;27.47;;;21.10;;
9392;SDS011;4736;52.508;13.422;2023-04-08T01:16:48;31.40;;;21.83;;
9392;SDS011;4736;52.508;13.422;2023-04-08T01:19:52;30.83;;;21.63;;
9392;SDS011;4736;52.508;13.422;2023-04-08T01:23:01;30.70;;;21.70;;
9392;SDS011;4736;52.508;13.422;2023-04-08T01:26:12;32.27;;;20.93;;
9392;SDS011;4736;52.508;13.422;2023-04-08T01:29:24;28.03;;;20.60;;
9392;SDS011;4736;52.508;13.422;2023-04-08T01:32:28;29.93;;;21.47;;
9392;SDS011;4736;52.508;13.422;2023-04-08T01:35:33;30.77;;;21.63;;
9392;SDS011;4736;52.508;13.422;2023-04-08T01:38:37;32.27;;;22.80;;
9392;SDS011;4736;52.508;13.422;2023-04-08T01:41:42;27.57;;;21.60;;
9392;SDS011;4736;52.508;13.422;2023-04-08T01:44:46;33.83;;;23.60;;
9392;SDS011;4736;52.508;13.422;2023-04-08T01:47:50;37.37;;;23.53;;
9392;SDS011;4736;52.508;13.422;2023-04-08T01:50:54;31.90;;;22.33;;
9392;SDS011;4736;52.508;13.422;2023-04-08T01:53:58;31.50;;;22.27;;
9392;SDS011;4736;52.508;13.422;2023-04-08T01:57:03;35.27;;;23.60;;
9392;SDS011;4736;52.508;13.422;2023-04-08T02:00:09;33.77;;;23.40;;
9392;SDS011;4736;52.508;13.422;2023-04-08T02:03:18;35.33;;;24.60;;
9392;SDS011;4736;52.508;13.422;2023-04-08T02:06:26;33.17;;;22.00;;
9392;SDS011;4736;52.508;13.422;2023-04-08T02:09:30;41.00;;;25.67;;
9392;SDS011;4736;52.508;13.422;2023-04-08T02:12:34;37.00;;;23.73;;
9392;SDS011;4736;52.508;13.422;2023-04-08T02:15:39;34.20;;;22.87;;
9392;SDS011;4736;52.508;13.422;2023-04-08T02:18:49;33.53;;;21.20;;
9392;SDS011;4736;52.508;13.422;2023-04-08T02:22:01;36.87;;;25.07;;
9392;SDS011;4736;52.508;13.422;2023-04-08T02:25:08;38.63;;;24.93;;
9392;SDS011;4736;52.508;13.422;2023-04-08T02:28:16;32.37;;;22.87;;
9392;SDS011;4736;52.508;13.422;2023-04-08T02:31:20;35.27;;;23.97;;
9392;SDS011;4736;52.508;13.422;2023-04-08T02:34:24;37.33;;;23.70;;
9392;SDS011;4736;52.508;13.422;2023-04-08T02:37:28;31.60;;;22.60;;
9392;SDS011;4736;52.508;13.422;2023-04-08T02:40:32;38.57;;;24.27;;
9392;SDS011;4736;52.508;13.422;2023-04-08T02:43:38;37.43;;;25.87;;
9392;SDS011;4736;52.508;13.422;2023-04-08T02:46:41;32.77;;;23.43;;
9392;SDS011;4736;52.508;13.422;2023-04-08T02:49:44;35.20;;;23.93;;
9392;SDS011;4736;52.508;13.422;2023-04-08T02:52:47;33.77;;;23.23;;
9392;SDS011;4736;52.508;13.422;2023-04-08T02:55:51;40.00;;;25.63;;
9392;SDS011;4736;52.508;13.422;2023-04-08T02:58:55;39.73;;;24.27;;
9392;SDS011;4736;52.508;13.422;2023-04-08T03:01:58;37.90;;;23.83;;
9392;SDS011;4736;52.508;13.422;2023-04-08T03:05:02;38.63;;;24.63;;
9392;SDS011;4736;52.508;13.422;2023-04-08T03:08:05;35.50;;;24.03;;
9392;SDS011;4736;52.508;13.422;2023-04-08T03:11:08;40.40;;;25.67;;
9392;SDS011;4736;52.508;13.422;2023-04-08T03:14:13;38.80;;;25.77;;
9392;SDS011;4736;52.508;13.422;2023-04-08T03:17:18;35.30;;;24.00;;
9392;SDS011;4736;52.508;13.422;2023-04-08T03:20:21;40.27;;;25.13;;
9392;SDS011;4736;52.508;13.422;2023-04-08T03:23:24;35.40;;;23.67;;
9392;SDS011;4736;52.508;13.422;2023-04-08T03:26:27;38.50;;;24.87;;
9392;SDS011;4736;52.508;13.422;2023-04-08T03:29:32;39.60;;;25.57;;
9392;SDS011;4736;52.508;13.422;2023-04-08T03:32:35;39.37;;;24.33;;
9392;SDS011;4736;52.508;13.422;2023-04-08T03:35:39;44.37;;;26.70;;
9392;SDS011;4736;52.508;13.422;2023-04-08T03:38:42;41.50;;;25.30;;
9392;SDS011;4736;52.508;13.422;2023-04-08T03:41:46;42.17;;;26.33;;
9392;SDS011;4736;52.508;13.422;2023-04-08T03:44:50;39.07;;;25.03;;
9392;SDS011;4736;52.508;13.422;2023-04-08T03:47:53;40.50;;;26.10;;
9392;SDS011;4736;52.508;13.422;2023-04-08T03:50:56;45.37;;;25.77;;
9392;SDS011;4736;52.508;13.422;2023-04-08T03:54:00;37.53;;;25.10;;
9392;SDS011;4736;52.508;13.422;2023-04-08T03:57:03;41.23;;;26.13;;
9392;SDS011;4736;52.508;13.422;2023-04-08T04:00:08;41.60;;;26.07;;
9392;SDS011;4736;52.508;13.422;2023-04-08T04:03:12;45.60;;;27.33;;
9392;SDS011;4736;52.508;13.422;2023-04-08T04:06:15;42.70;;;26.90;;
9392;SDS011;4736;52.508;13.422;2023-04-08T04:09:18;44.80;;;27.23;;
9392;SDS011;4736;52.508;13.422;2023-04-08T04:12:21;41.90;;;24.17;;
9392;SDS011;4736;52.508;13.422;2023-04-08T04:15:26;45.00;;;27.23;;
9392;SDS011;4736;52.508;13.422;2023-04-08T04:18:29;48.77;;;28.53;;
9392;SDS011;4736;52.508;13.422;2023-04-08T04:21:32;45.83;;;27.80;;
9392;SDS011;4736;52.508;13.422;2023-04-08T04:24:35;51.67;;;27.40;;
9392;SDS011;4736;52.508;13.422;2023-04-08T04:27:38;43.00;;;27.20;;
9392;SDS011;4736;52.508;13.422;2023-04-08T04:30:43;45.80;;;27.73;;
9392;SDS011;4736;52.508;13.422;2023-04-08T04:33:46;50.13;;;28.70;;
9392;SDS011;4736;52.508;13.422;2023-04-08T04:36:50;51.10;;;29.03;;
9392;SDS011;4736;52.508;13.422;2023-04-08T04:39:53;47.90;;;27.93;;
9392;SDS011;4736;52.508;13.422;2023-04-08T04:42:56;48.33;;;29.07;;
9392;SDS011;4736;52.508;13.422;2023-04-08T04:46:01;45.57;;;28.00;;
9392;SDS011;4736;52.508;13.422;2023-04-08T04:49:07;45.77;;;27.83;;
9392;SDS011;4736;52.508;13.422;2023-04-08T04:52:10;47.07;;;28.13;;
9392;SDS011;4736;52.508;13.422;2023-04-08T04:55:14;45.80;;;28.13;;
9392;SDS011;4736;52.508;13.422;2023-04-08T04:58:17;41.93;;;27.30;;
9392;SDS011;4736;52.508;13.422;2023-04-08T05:01:22;44.67;;;26.60;;
9392;SDS011;4736;52.508;13.422;2023-04-08T05:04:25;44.33;;;27.47;;
9392;SDS011;4736;52.508;13.422;2023-04-08T05:07:28;43.63;;;26.07;;
9392;SDS011;4736;52.508;13.422;2023-04-08T05:10:31;47.13;;;27.83;;
9392;SDS011;4736;52.508;13.422;2023-04-08T05:13:34;49.33;;;28.00;;
9392;SDS011;4736;52.508;13.422;2023-04-08T05:16:38;41.03;;;26.23;;
9392;SDS011;4736;52.508;13.422;2023-04-08T05:19:41;44.93;;;28.00;;
9392;SDS011;4736;52.508;13.422;2023-04-08T05:22:45;51.57;;;29.87;;
9392;SDS011;4736;52.508;13.422;2023-04-08T05:25:48;44.87;;;29.53;;
9392;SDS011;4736;52.508;13.422;2023-04-08T05:28:51;50.73;;;29.80;;
9392;SDS011;4736;52.508;13.422;2023-04-08T05:31:55;47.30;;;29.07;;
9392;SDS011;4736;52.508;13.422;2023-04-08T05:35:00;47.93;;;30.03;;
9392;SDS011;4736;52.508;13.422;2023-04-08T05:38:04;44.20;;;27.63;;
9392;SDS011;4736;52.508;13.422;2023-04-08T05:41:07;44.73;;;28.27;;
9392;SDS011;4736;52.508;13.422;2023-04-08T05:44:11;44.33;;;28.73;;
9392;SDS011;4736;52.508;13.422;2023-04-08T05:47:15;47.93;;;28.63;;
9392;SDS011;4736;52.508;13.422;2023-04-08T05:50:18;39.97;;;26.73;;
9392;SDS011;4736;52.508;13.422;2023-04-08T05:53:21;41.43;;;27.67;;
9392;SDS011;4736;52.508;13.422;2023-04-08T05:56:25;40.33;;;27.47;;
9392;SDS011;4736;52.508;13.422;2023-04-08T05:59:28;47.60;;;30.07;;
9392;SDS011;4736;52.508;13.422;2023-04-08T06:02:33;45.33;;;28.70;;
9392;SDS011;4736;52.508;13.422;2023-04-08T06:05:36;49.97;;;31.23;;
9392;SDS011;4736;52.508;13.422;2023-04-08T06:08:40;47.97;;;30.50;;
9392;SDS011;4736;52.508;13.422;2023-04-08T06:11:43;46.77;;;29.43;;
9392;SDS011;4736;52.508;13.422;2023-04-08T06:14:47;43.03;;;28.83;;
9392;SDS011;4736;52.508;13.422;2023-04-08T06:17:56;51.60;;;32.20;;
9392;SDS011;4736;52.508;13.422;2023-04-08T06:20:59;46.37;;;28.93;;
9392;SDS011;4736;52.508;13.422;2023-04-08T06:24:02;52.43;;;31.47;;
9392;SDS011;4736;52.508;13.422;2023-04-08T06:27:05;47.93;;;29.37;;
9392;SDS011;4736;52.508;13.422;2023-04-08T06:30:08;45.07;;;28.20;;
9392;SDS011;4736;52.508;13.422;2023-04-08T06:33:13;46.63;;;29.33;;
9392;SDS011;4736;52.508;13.422;2023-04-08T06:36:16;51.07;;;30.03;;
9392;SDS011;4736;52.508;13.422;2023-04-08T06:39:20;46.43;;;28.70;;
9392;SDS011;4736;52.508;13.422;2023-04-08T06:42:23;46.10;;;30.60;;
9392;SDS011;4736;52.508;13.422;2023-04-08T06:45:26;52.40;;;30.67;;
9392;SDS011;4736;52.508;13.422;2023-04-08T06:48:33;50.17;;;28.70;;
9392;SDS011;4736;52.508;13.422;2023-04-08T06:51:38;43.27;;;28.50;;
9392;SDS011;4736;52.508;13.422;2023-04-08T06:54:41;51.40;;;30.20;;
9392;SDS011;4736;52.508;13.422;2023-04-08T06:57:44;48.57;;;30.67;;
9392;SDS011;4736;52.508;13.422;2023-04-08T07:00:47;48.47;;;29.77;;
9392;SDS011;4736;52.508;13.422;2023-04-08T07:03:52;41.47;;;26.37;;
9392;SDS011;4736;52.508;13.422;2023-04-08T07:06:55;43.17;;;28.73;;
9392;SDS011;4736;52.508;13.422;2023-04-08T07:09:58;44.47;;;29.17;;
9392;SDS011;4736;52.508;13.422;2023-04-08T07:13:01;48.53;;;30.00;;
9392;SDS011;4736;52.508;13.422;2023-04-08T07:16:05;46.90;;;29.87;;
9392;SDS011;4736;52.508;13.422;2023-04-08T07:19:10;44.53;;;28.70;;
9392;SDS011;4736;52.508;13.422;2023-04-08T07:22:13;46.77;;;28.50;;
9392;SDS011;4736;52.508;13.422;2023-04-08T07:25:16;48.03;;;28.07;;
9392;SDS011;4736;52.508;13.422;2023-04-08T07:28:19;46.47;;;30.17;;
9392;SDS011;4736;52.508;13.422;2023-04-08T07:31:23;46.37;;;29.63;;
9392;SDS011;4736;52.508;13.422;2023-04-08T07:34:30;47.67;;;28.40;;
9392;SDS011;4736;52.508;13.422;2023-04-08T07:37:33;49.67;;;30.27;;
9392;SDS011;4736;52.508;13.422;2023-04-08T07:40:36;45.83;;;28.77;;
9392;SDS011;4736;52.508;13.422;2023-04-08T07:43:39;40.47;;;27.53;;
9392;SDS011;4736;52.508;13.422;2023-04-08T07:46:42;46.67;;;27.17;;
9392;SDS011;4736;52.508;13.422;2023-04-08T07:49:50;42.80;;;27.63;;
9392;SDS011;4736;52.508;13.422;2023-04-08T07:52:54;41.30;;;28.10;;
9392;SDS011;4736;52.508;13.422;2023-04-08T07:55:57;46.10;;;28.83;;
9392;SDS011;4736;52.508;13.422;2023-04-08T07:59:01;47.30;;;29.20;;
9392;SDS011;4736;52.508;13.422;2023-04-08T08:02:04;39.83;;;28.20;;
9392;SDS011;4736;52.508;13.422;2023-04-08T08:05:09;39.17;;;26.03;;
9392;SDS011;4736;52.508;13.422;2023-04-08T08:08:12;44.57;;;28.90;;
9392;SDS011;4736;52.508;13.422;2023-04-08T08:11:15;40.23;;;26.67;;
9392;SDS011;4736;52.508;13.422;2023-04-08T08:14:19;39.63;;;27.07;;
9392;SDS011;4736;52.508;13.422;2023-04-08T08:17:22;39.13;;;26.73;;
9392;SDS011;4736;52.508;13.422;2023-04-08T08:20:29;37.67;;;27.00;;
9392;SDS011;4736;52.508;13.422;2023-04-08T08:23:32;38.33;;;26.63;;
9392;SDS011;4736;52.508;13.422;2023-04-08T08:26:38;40.27;;;27.83;;
9392;SDS011;4736;52.508;13.422;2023-04-08T08:29:42;40.63;;;28.07;;
9392;SDS011;4736;52.508;13.422;2023-04-08T08:32:45;40.43;;;25.03;;
9392;SDS011;4736;52.508;13.422;2023-04-08T08:35:50;43.10;;;27.97;;
9392;SDS011;4736;52.508;13.422;2023-04-08T08:38:53;37.93;;;26.20;;
9392;SDS011;4736;52.508;13.422;2023-04-08T08:41:56;37.40;;;24.40;;
9392;SDS011;4736;52.508;13.422;2023-04-08T08:45:00;41.63;;;26.57;;
9392;SDS011;4736;52.508;13.422;2023-04-08T08:48:04;37.17;;;26.00;;
9392;SDS011;4736;52.508;13.422;2023-04-08T08:51:10;37.80;;;26.03;;
9392;SDS011;4736;52.508;13.422;2023-04-08T08:54:14;38.30;;;26.47;;
9392;SDS011;4736;52.508;13.422;2023-04-08T08:57:17;36.50;;;26.97;;
9392;SDS011;4736;52.508;13.422;2023-04-08T09:00:29;39.70;;;25.97;;
9392;SDS011;4736;52.508;13.422;2023-04-08T09:03:36;35.90;;;25.40;;
9392;SDS011;4736;52.508;13.422;2023-04-08T09:06:41;34.63;;;25.03;;
9392;SDS011;4736;52.508;13.422;2023-04-08T09:09:47;32.03;;;23.97;;
9392;SDS011;4736;52.508;13.422;2023-04-08T09:12:54;37.10;;;25.70;;
9392;SDS011;4736;52.508;13.422;2023-04-08T09:16:01;33.10;;;25.33;;
9392;SDS011;4736;52.508;13.422;2023-04-08T09:19:08;36.43;;;24.17;;
9392;SDS011;4736;52.508;13.422;2023-04-08T09:22:14;32.30;;;24.33;;
9392;SDS011;4736;52.508;13.422;2023-04-08T09:25:21;32.07;;;24.10;;
9392;SDS011;4736;52.508;13.422;2023-04-08T09:28:25;36.97;;;24.37;;
9392;SDS011;4736;52.508;13.422;2023-04-08T09:31:29;32.17;;;24.03;;
9392;SDS011;4736;52.508;13.422;2023-04-08T09:34:33;36.70;;;25.47;;
9392;SDS011;4736;52.508;13.422;2023-04-08T09:37:38;31.87;;;23.50;;
9392;SDS011;4736;52.508;13.422;2023-04-08T09:40:41;33.20;;;24.60;;
9392;SDS011;4736;52.508;13.422;2023-04-08T09:43:46;35.57;;;24.87;;
9392;SDS011;4736;52.508;13.422;2023-04-08T09:46:55;30.33;;;23.97;;
9392;SDS011;4736;52.508;13.422;2023-04-08T09:50:02;33.13;;;24.83;;
9392;SDS011;4736;52.508;13.422;2023-04-08T09:53:12;33.17;;;23.83;;
9392;SDS011;4736;52.508;13.422;2023-04-08T09:56:23;35.63;;;24.47;;
9392;SDS011;4736;52.508;13.422;2023-04-08T09:59:32;34.23;;;23.97;;
9392;SDS011;4736;52.508;13.422;2023-04-08T10:02:40;32.13;;;23.93;;
9392;SDS011;4736;52.508;13.422;2023-04-08T10:05:49;35.60;;;24.43;;
9392;SDS011;4736;52.508;13.422;2023-04-08T10:08:56;33.73;;;25.20;;
9392;SDS011;4736;52.508;13.422;2023-04-08T10:12:00;28.83;;;22.43;;
9392;SDS011;4736;52.508;13.422;2023-04-08T10:18:29;27.97;;;23.23;;
9392;SDS011;4736;52.508;13.422;2023-04-08T10:21:37;28.10;;;22.53;;
9392;SDS011;4736;52.508;13.422;2023-04-08T10:24:48;28.43;;;23.40;;
9392;SDS011;4736;52.508;13.422;2023-04-08T10:28:29;31.23;;;23.27;;
9392;SDS011;4736;52.508;13.422;2023-04-08T10:31:38;27.20;;;22.30;;
9392;SDS011;4736;52.508;13.422;2023-04-08T10:34:50;35.00;;;24.57;;
9392;SDS011;4736;52.508;13.422;2023-04-08T10:37:54;28.23;;;21.80;;
9392;SDS011;4736;52.508;13.422;2023-04-08T10:41:00;28.20;;;22.00;;
9392;SDS011;4736;52.508;13.422;2023-04-08T10:44:03;31.03;;;23.47;;
9392;SDS011;4736;52.508;13.422;2023-04-08T10:47:06;28.63;;;21.97;;
9392;SDS011;4736;52.508;13.422;2023-04-08T10:50:12;25.63;;;22.40;;
9392;SDS011;4736;52.508;13.422;2023-04-08T10:53:17;26.80;;;21.93;;
9392;SDS011;4736;52.508;13.422;2023-04-08T10:56:21;24.67;;;20.57;;
9392;SDS011;4736;52.508;13.422;2023-04-08T10:59:28;25.63;;;21.00;;
9392;SDS011;4736;52.508;13.422;2023-04-08T11:02:33;26.50;;;20.50;;
9392;SDS011;4736;52.508;13.422;2023-04-08T11:05:40;27.27;;;19.97;;
9392;SDS011;4736;52.508;13.422;2023-04-08T11:08:43;23.33;;;19.93;;
9392;SDS011;4736;52.508;13.422;2023-04-08T11:11:49;24.73;;;19.53;;
9392;SDS011;4736;52.508;13.422;2023-04-08T11:14:53;25.67;;;20.63;;
9392;SDS011;4736;52.508;13.422;2023-04-08T11:17:57;23.00;;;19.10;;
9392;SDS011;4736;52.508;13.422;2023-04-08T11:21:00;22.97;;;19.07;;
9392;SDS011;4736;52.508;13.422;2023-04-08T11:24:10;24.37;;;20.10;;
9392;SDS011;4736;52.508;13.422;2023-04-08T11:27:16;21.93;;;19.63;;
9392;SDS011;4736;52.508;13.422;2023-04-08T11:30:19;23.67;;;20.07;;
9392;SDS011;4736;52.508;13.422;2023-04-08T11:33:23;24.17;;;20.07;;
9392;SDS011;4736;52.508;13.422;2023-04-08T11:36:27;26.30;;;19.93;;
9392;SDS011;4736;52.508;13.422;2023-04-08T11:39:39;21.23;;;18.53;;
9392;SDS011;4736;52.508;13.422;2023-04-08T11:42:45;19.63;;;17.13;;
9392;SDS011;4736;52.508;13.422;2023-04-08T11:45:49;18.17;;;15.93;;
9392;SDS011;4736;52.508;13.422;2023-04-08T11:48:56;21.43;;;18.53;;
9392;SDS011;4736;52.508;13.422;2023-04-08T11:52:00;18.83;;;16.87;;
9392;SDS011;4736;52.508;13.422;2023-04-08T11:55:03;19.50;;;16.67;;
9392;SDS011;4736;52.508;13.422;2023-04-08T11:58:08;18.03;;;16.23;;
9392;SDS011;4736;52.508;13.422;2023-04-08T12:01:12;18.50;;;16.70;;
9392;SDS011;4736;52.508;13.422;2023-04-08T12:04:15;19.67;;;17.77;;
9392;SDS011;4736;52.508;13.422;2023-04-08T12:07:18;19.60;;;17.20;;
9392;SDS011;4736;52.508;13.422;2023-04-08T12:10:21;19.80;;;17.67;;
9392;SDS011;4736;52.508;13.422;2023-04-08T12:13:26;21.10;;;18.80;;
9392;SDS011;4736;52.508;13.422;2023-04-08T12:16:31;22.20;;;17.90;;
9392;SDS011;4736;52.508;13.422;2023-04-08T12:19:34;23.53;;;17.87;;
9392;SDS011;4736;52.508;13.422;2023-04-08T12:22:38;18.70;;;16.70;;
9392;SDS011;4736;52.508;13.422;2023-04-08T12:25:41;17.77;;;16.00;;
9392;SDS011;4736;52.508;13.422;2023-04-08T12:28:46;17.50;;;15.70;;
9392;SDS011;4736;52.508;13.422;2023-04-08T12:31:49;17.63;;;15.90;;
9392;SDS011;4736;52.508;13.422;2023-04-08T12:34:53;17.10;;;15.40;;
9392;SDS011;4736;52.508;13.422;2023-04-08T12:37:57;17.07;;;15.47;;
9392;SDS011;4736;52.508;13.422;2023-04-08T12:41:00;15.30;;;14.00;;
9392;SDS011;4736;52.508;13.422;2023-04-08T12:44:04;14.73;;;13.33;;
9392;SDS011;4736;52.508;13.422;2023-04-08T12:47:07;14.77;;;13.57;;
9392;SDS011;4736;52.508;13.422;2023-04-08T12:50:11;12.83;;;11.83;;
9392;SDS011;4736;52.508;13.422;2023-04-08T12:53:15;13.13;;;12.10;;
9392;SDS011;4736;52.508;13.422;2023-04-08T12:56:18;11.13;;;10.33;;
9392;SDS011;4736;52.508;13.422;2023-04-08T12:59:22;11.53;;;10.63;;
9392;SDS011;4736;52.508;13.422;2023-04-08T13:02:25;12.10;;;11.20;;
9392;SDS011;4736;52.508;13.422;2023-04-08T13:05:29;11.83;;;10.80;;
9392;SDS011;4736;52.508;13.422;2023-04-08T13:08:44;12.00;;;11.03;;
9392;SDS011;4736;52.508;13.422;2023-04-08T13:11:47;11.63;;;10.67;;
9392;SDS011;4736;52.508;13.422;2023-04-08T13:14:52;13.83;;;12.63;;
9392;SDS011;4736;52.508;13.422;2023-04-08T13:17:55;13.57;;;12.33;;
9392;SDS011;4736;52.508;13.422;2023-04-08T13:20:58;13.00;;;11.90;;
9392;SDS011;4736;52.508;13.422;2023-04-08T13:24:01;13.03;;;11.70;;
9392;SDS011;4736;52.508;13.422;2023-04-08T13:27:05;13.17;;;11.87;;
9392;SDS011;4736;52.508;13.422;2023-04-08T13:30:10;14.67;;;13.47;;
9392;SDS011;4736;52.508;13.422;2023-04-08T13:33:14;13.63;;;12.53;;
9392;SDS011;4736;52.508;13.422;2023-04-08T13:36:17;13.20;;;11.97;;
9392;SDS011;4736;52.508;13.422;2023-04-08T13:39:20;14.73;;;13.43;;
9392;SDS011;4736;52.508;13.422;2023-04-08T13:42:23;14.03;;;12.80;;
9392;SDS011;4736;52.508;13.422;2023-04-08T13:45:28;13.97;;;12.70;;
9392;SDS011;4736;52.508;13.422;2023-04-08T13:48:31;13.20;;;12.10;;
9392;SDS011;4736;52.508;13.422;2023-04-08T13:51:34;13.00;;;12.00;;
9392;SDS011;4736;52.508;13.422;2023-04-08T13:54:38;10.83;;;10.03;;
9392;SDS011;4736;52.508;13.422;2023-04-08T13:57:41;11.67;;;10.67;;
9392;SDS011;4736;52.508;13.422;2023-04-08T14:00:45;11.67;;;10.77;;
9392;SDS011;4736;52.508;13.422;2023-04-08T14:03:48;12.50;;;11.50;;
9392;SDS011;4736;52.508;13.422;2023-04-08T14:06:51;12.47;;;11.50;;
9392;SDS011;4736;52.508;13.422;2023-04-08T14:09:55;12.37;;;11.37;;
9392;SDS011;4736;52.508;13.422;2023-04-08T14:12:58;12.47;;;11.57;;
9392;SDS011;4736;52.508;13.422;2023-04-08T14:16:02;12.20;;;11.30;;
9392;SDS011;4736;52.508;13.422;2023-04-08T14:19:06;13.47;;;12.27;;
9392;SDS011;4736;52.508;13.422;2023-04-08T14:22:09;13.43;;;12.33;;
9392;SDS011;4736;52.508;13.422;2023-04-08T14:25:13;12.23;;;11.27;;
9392;SDS011;4736;52.508;13.422;2023-04-08T14:28:16;13.23;;;12.17;;
9392;SDS011;4736;52.508;13.422;2023-04-08T14:31:20;13.57;;;12.53;;
9392;SDS011;4736;52.508;13.422;2023-04-08T14:34:23;12.97;;;11.93;;
9392;SDS011;4736;52.508;13.422;2023-04-08T14:37:27;12.50;;;11.60;;
9392;SDS011;4736;52.508;13.422;2023-04-08T14:40:31;11.90;;;10.87;;
9392;SDS011;4736;52.508;13.422;2023-04-08T14:43:37;12.33;;;11.33;;
9392;SDS011;4736;52.508;13.422;2023-04-08T14:46:41;12.20;;;11.13;;
9392;SDS011;4736;52.508;13.422;2023-04-08T14:49:45;12.27;;;11.27;;
9392;SDS011;4736;52.508;13.422;2023-04-08T14:52:50;11.73;;;10.83;;
9392;SDS011;4736;52.508;13.422;2023-04-08T14:55:53;12.23;;;11.33;;
9392;SDS011;4736;52.508;13.422;2023-04-08T14:58:56;12.33;;;11.43;;
9392;SDS011;4736;52.508;13.422;2023-04-08T15:02:01;11.87;;;10.87;;
9392;SDS011;4736;52.508;13.422;2023-04-08T15:05:05;10.17;;;9.47;;
9392;SDS011;4736;52.508;13.422;2023-04-08T15:08:08;10.43;;;9.63;;
9392;SDS011;4736;52.508;13.422;2023-04-08T15:11:12;12.90;;;11.90;;
9392;SDS011;4736;52.508;13.422;2023-04-08T15:14:15;11.60;;;10.70;;
9392;SDS011;4736;52.508;13.422;2023-04-08T15:17:19;12.23;;;11.23;;
9392;SDS011;4736;52.508;13.422;2023-04-08T15:20:22;13.20;;;12.10;;
9392;SDS011;4736;52.508;13.422;2023-04-08T15:23:25;12.93;;;11.73;;
9392;SDS011;4736;52.508;13.422;2023-04-08T15:26:28;13.17;;;12.10;;
9392;SDS011;4736;52.508;13.422;2023-04-08T15:29:31;11.97;;;11.00;;
9392;SDS011;4736;52.508;13.422;2023-04-08T15:32:36;10.97;;;10.27;;
9392;SDS011;4736;52.508;13.422;2023-04-08T15:35:43;10.93;;;10.03;;
9392;SDS011;4736;52.508;13.422;2023-04-08T15:38:47;12.17;;;11.17;;
9392;SDS011;4736;52.508;13.422;2023-04-08T15:41:51;12.17;;;11.07;;
9392;SDS011;4736;52.508;13.422;2023-04-08T15:44:55;10.80;;;10.10;;
9392;SDS011;4736;52.508;13.422;2023-04-08T15:47:59;11.60;;;10.67;;
9392;SDS011;4736;52.508;13.422;2023-04-08T15:51:05;10.87;;;10.07;;
9392;SDS011;4736;52.508;13.422;2023-04-08T15:54:09;11.17;;;10.33;;
9392;SDS011;4736;52.508;13.422;2023-04-08T15:57:12;11.47;;;10.57;;
9392;SDS011;4736;52.508;13.422;2023-04-08T16:00:16;10.27;;;9.57;;
9392;SDS011;4736;52.508;13.422;2023-04-08T16:03:21;11.57;;;10.70;;
9392;SDS011;4736;52.508;13.422;2023-04-08T16:06:24;12.13;;;11.03;;
9392;SDS011;4736;52.508;13.422;2023-04-08T16:09:27;12.30;;;11.27;;
9392;SDS011;4736;52.508;13.422;2023-04-08T16:12:31;11.60;;;10.60;;
9392;SDS011;4736;52.508;13.422;2023-04-08T16:15:34;12.17;;;11.27;;
9392;SDS011;4736;52.508;13.422;2023-04-08T16:18:39;12.40;;;11.20;;
9392;SDS011;4736;52.508;13.422;2023-04-08T16:21:46;12.00;;;11.10;;
9392;SDS011;4736;52.508;13.422;2023-04-08T16:24:49;11.77;;;10.90;;
9392;SDS011;4736;52.508;13.422;2023-04-08T16:27:53;10.27;;;9.47;;
9392;SDS011;4736;52.508;13.422;2023-04-08T16:30:56;10.60;;;9.87;;
9392;SDS011;4736;52.508;13.422;2023-04-08T16:34:00;11.80;;;10.90;;
9392;SDS011;4736;52.508;13.422;2023-04-08T16:37:04;10.53;;;9.83;;
9392;SDS011;4736;52.508;13.422;2023-04-08T16:40:08;12.30;;;11.30;;
9392;SDS011;4736;52.508;13.422;2023-04-08T16:43:12;12.33;;;11.27;;
9392;SDS011;4736;52.508;13.422;2023-04-08T16:46:16;13.03;;;11.83;;
9392;SDS011;4736;52.508;13.422;2023-04-08T16:49:21;11.00;;;10.10;;
9392;SDS011;4736;52.508;13.422;2023-04-08T16:52:24;11.23;;;10.33;;
9392;SDS011;4736;52.508;13.422;2023-04-08T16:55:27;13.37;;;12.17;;
9392;SDS011;4736;52.508;13.422;2023-04-08T16:58:33;14.53;;;13.23;;
9392;SDS011;4736;52.508;13.422;2023-04-08T17:01:37;13.17;;;12.13;;
9392;SDS011;4736;52.508;13.422;2023-04-08T17:04:42;15.23;;;13.63;;
9392;SDS011;4736;52.508;13.422;2023-04-08T17:07:45;17.27;;;15.77;;
9392;SDS011;4736;52.508;13.422;2023-04-08T17:10:48;21.23;;;19.03;;
9392;SDS011;4736;52.508;13.422;2023-04-08T17:13:51;22.07;;;19.93;;
9392;SDS011;4736;52.508;13.422;2023-04-08T17:16:54;21.20;;;19.10;;
9392;SDS011;4736;52.508;13.422;2023-04-08T17:20:01;20.57;;;18.57;;
9392;SDS011;4736;52.508;13.422;2023-04-08T17:23:05;24.03;;;21.17;;
9392;SDS011;4736;52.508;13.422;2023-04-08T17:26:08;21.83;;;19.63;;
9392;SDS011;4736;52.508;13.422;2023-04-08T17:29:12;22.70;;;20.40;;
9392;SDS011;4736;52.508;13.422;2023-04-08T17:32:16;23.13;;;20.70;;
9392;SDS011;4736;52.508;13.422;2023-04-08T17:35:20;23.23;;;21.03;;
9392;SDS011;4736;52.508;13.422;2023-04-08T17:38:23;24.93;;;22.53;;
9392;SDS011;4736;52.508;13.422;2023-04-08T17:41:26;27.03;;;24.13;;
9392;SDS011;4736;52.508;13.422;2023-04-08T17:44:40;27.03;;;23.70;;
9392;SDS011;4736;52.508;13.422;2023-04-08T17:47:45;25.07;;;22.50;;
9392;SDS011;4736;52.508;13.422;2023-04-08T17:50:49;24.77;;;22.03;;
9392;SDS011;4736;52.508;13.422;2023-04-08T17:54:02;25.90;;;23.10;;
9392;SDS011;4736;52.508;13.422;2023-04-08T17:57:06;27.20;;;23.37;;
9392;SDS011;4736;52.508;13.422;2023-04-08T18:00:09;30.30;;;26.53;;
9392;SDS011;4736;52.508;13.422;2023-04-08T18:03:12;33.00;;;26.50;;
9392;SDS011;4736;52.508;13.422;2023-04-08T18:06:17;34.23;;;28.13;;
9392;SDS011;4736;52.508;13.422;2023-04-08T18:09:20;39.10;;;30.57;;
9392;SDS011;4736;52.508;13.422;2023-04-08T18:12:23;36.77;;;29.87;;
9392;SDS011;4736;52.508;13.422;2023-04-08T18:15:28;39.97;;;31.33;;
9392;SDS011;4736;52.508;13.422;2023-04-08T18:18:31;33.50;;;28.40;;
9392;SDS011;4736;52.508;13.422;2023-04-08T18:21:39;36.93;;;29.23;;